Time;durP1;ratioP1;P1;durP2;ratioP2;P2;SDS_P1;SDS_P2;PMS_P1;PMS_P2;Temp;Humidity;BMP_temperature;BMP_pressure;BME280_temperature;BME280_humidity;BME280_pressure;Samples;Min_cycle;Max_cycle;Signal;HPM_P1;HPM_P2
2022/03/16 00:00:01;;;;;;;25.85;22.48;;;;;;;;;;5063725;28;20247;-68
2022/03/16 00:02:27;;;;;;;26.25;23.15;;;;;;;;;;5063511;28;20217;-68
2022/03/16 00:04:54;;;;;;;27.10;23.33;;;;;;;;;;5063385;28;20243;-68
2022/03/16 00:07:21;;;;;;;28.73;24.23;;;;;;;;;;5063230;28;20197;-68
2022/03/16 00:09:48;;;;;;;31.90;25.38;;;;;;;;;;5063509;28;20201;-68
2022/03/16 00:12:15;;;;;;;28.20;24.48;;;;;;;;;;5063426;28;20430;-68
2022/03/16 00:14:42;;;;;;;28.25;25.10;;;;;;;;;;5063474;28;20219;-68
2022/03/16 00:17:08;;;;;;;27.25;24.15;;;;;;;;;;5063192;28;20504;-68
2022/03/16 00:19:35;;;;;;;29.50;25.45;;;;;;;;;;5063324;28;20197;-68
2022/03/16 00:22:02;;;;;;;31.92;26.23;;;;;;;;;;5063047;28;20231;-68
2022/03/16 00:24:29;;;;;;;31.08;26.25;;;;;;;;;;5062916;28;20243;-68
2022/03/16 00:26:56;;;;;;;32.17;26.63;;;;;;;;;;5062895;28;20554;-68
2022/03/16 00:29:23;;;;;;;32.65;27.90;;;;;;;;;;5063147;28;20197;-68
2022/03/16 00:31:49;;;;;;;33.15;27.58;;;;;;;;;;5062995;28;20508;-68
2022/03/16 00:34:15;;;;;;;30.05;26.38;;;;;;;;;;5062750;28;20235;-68
2022/03/16 00:36:42;;;;;;;32.72;27.05;;;;;;;;;;5062799;28;20382;-68
2022/03/16 00:39:08;;;;;;;30.80;26.52;;;;;;;;;;5062938;28;20197;-68
2022/03/16 00:41:36;;;;;;;33.33;27.05;;;;;;;;;;5062206;28;20209;-68
2022/03/16 00:44:04;;;;;;;36.08;30.13;;;;;;;;;;5062809;28;20197;-68
2022/03/16 00:46:31;;;;;;;36.30;29.67;;;;;;;;;;5062328;28;20201;-68
2022/03/16 00:48:57;;;;;;;38.28;30.10;;;;;;;;;;5062540;28;20204;-68
2022/03/16 00:51:24;;;;;;;37.63;30.35;;;;;;;;;;5062832;28;20227;-68
2022/03/16 00:53:50;;;;;;;39.83;31.50;;;;;;;;;;5062704;28;20243;-68
2022/03/16 00:56:16;;;;;;;39.80;30.75;;;;;;;;;;5062275;28;20201;-68
2022/03/16 00:58:42;;;;;;;36.80;29.70;;;;;;;;;;5062542;28;20258;-68
2022/03/16 01:01:10;;;;;;;36.55;30.13;;;;;;;;;;5062445;28;20251;-68
2022/03/16 01:03:40;;;;;;;42.53;31.90;;;;;;;;;;5062171;28;20263;-68
2022/03/16 01:06:12;;;;;;;38.50;32.03;;;;;;;;;;5062241;28;20223;-68
2022/03/16 01:08:38;;;;;;;39.40;31.75;;;;;;;;;;5062448;28;20492;-68
2022/03/16 01:11:04;;;;;;;41.30;31.88;;;;;;;;;;5062436;28;20203;-68
2022/03/16 01:13:30;;;;;;;39.67;30.88;;;;;;;;;;5062426;28;20478;-68
2022/03/16 01:15:57;;;;;;;38.50;30.40;;;;;;;;;;5061932;28;20201;-68
2022/03/16 01:18:24;;;;;;;40.90;31.95;;;;;;;;;;5062240;28;20243;-68
2022/03/16 01:20:50;;;;;;;44.17;32.92;;;;;;;;;;5062508;28;20197;-68
2022/03/16 01:23:17;;;;;;;39.45;30.35;;;;;;;;;;5062335;28;20255;-68
2022/03/16 01:25:43;;;;;;;42.17;33.03;;;;;;;;;;5062051;28;20243;-68
2022/03/16 01:28:09;;;;;;;42.33;32.80;;;;;;;;;;5061950;28;20197;-68
2022/03/16 01:30:35;;;;;;;42.90;32.70;;;;;;;;;;5062028;28;20204;-68
2022/03/16 01:33:02;;;;;;;44.50;32.22;;;;;;;;;;5062226;28;20497;-68
2022/03/16 01:35:29;;;;;;;41.10;31.25;;;;;;;;;;5062195;28;20419;-68
2022/03/16 01:37:56;;;;;;;46.95;35.35;;;;;;;;;;5061822;28;20197;-68
2022/03/16 01:40:22;;;;;;;47.15;33.92;;;;;;;;;;5062170;28;20236;-68
2022/03/16 01:42:48;;;;;;;45.13;33.90;;;;;;;;;;5061958;28;20224;-68
2022/03/16 01:45:15;;;;;;;48.42;34.50;;;;;;;;;;5061834;28;20201;-68
2022/03/16 01:47:41;;;;;;;47.22;34.25;;;;;;;;;;5061876;28;20243;-68
2022/03/16 01:50:08;;;;;;;48.63;34.63;;;;;;;;;;5062107;28;20193;-68
2022/03/16 01:52:36;;;;;;;43.42;32.70;;;;;;;;;;5062426;28;20538;-68
2022/03/16 01:55:05;;;;;;;50.17;34.60;;;;;;;;;;5065990;28;20430;-68
2022/03/16 01:57:32;;;;;;;46.60;34.03;;;;;;;;;;5065628;28;20430;-68
2022/03/16 01:59:58;;;;;;;46.35;34.20;;;;;;;;;;5065750;28;20207;-68
2022/03/16 02:02:25;;;;;;;45.42;33.70;;;;;;;;;;5065967;28;20419;-68
2022/03/16 02:04:51;;;;;;;45.95;34.05;;;;;;;;;;5065762;28;20197;-68
2022/03/16 02:07:17;;;;;;;46.08;33.75;;;;;;;;;;5065396;28;20235;-68
2022/03/16 02:09:45;;;;;;;47.75;36.25;;;;;;;;;;5065788;28;20197;-68
2022/03/16 02:12:11;;;;;;;49.38;35.72;;;;;;;;;;5065563;28;20508;-68
2022/03/16 02:14:38;;;;;;;47.45;34.33;;;;;;;;;;5065508;28;20220;-68
2022/03/16 02:17:04;;;;;;;47.55;35.33;;;;;;;;;;5065539;28;20201;-68
2022/03/16 02:19:32;;;;;;;49.10;35.65;;;;;;;;;;5065706;28;20243;-68
2022/03/16 02:22:01;;;;;;;46.55;33.67;;;;;;;;;;5065491;28;20500;-68
2022/03/16 02:24:29;;;;;;;47.45;33.88;;;;;;;;;;5065256;28;20509;-68
2022/03/16 02:26:55;;;;;;;47.90;35.20;;;;;;;;;;5065057;28;20304;-68
2022/03/16 02:29:22;;;;;;;44.67;34.13;;;;;;;;;;5065439;28;20197;-68
2022/03/16 02:31:48;;;;;;;47.08;34.75;;;;;;;;;;5065249;28;20209;-68
2022/03/16 02:34:14;;;;;;;45.15;34.38;;;;;;;;;;5065248;28;20264;-68
2022/03/16 02:36:40;;;;;;;47.30;34.13;;;;;;;;;;5064947;28;20201;-68
2022/03/16 02:39:07;;;;;;;46.22;34.60;;;;;;;;;;5065034;28;20201;-68
2022/03/16 02:41:34;;;;;;;47.28;34.78;;;;;;;;;;5064539;28;20222;-68
2022/03/16 02:44:01;;;;;;;45.55;35.53;;;;;;;;;;5064968;28;20217;-68
2022/03/16 02:46:27;;;;;;;45.15;34.00;;;;;;;;;;5064649;28;20197;-68
2022/03/16 02:48:53;;;;;;;49.63;35.70;;;;;;;;;;5065370;28;20201;-68
2022/03/16 02:51:19;;;;;;;45.92;34.22;;;;;;;;;;5065058;28;20496;-68
2022/03/16 02:53:46;;;;;;;47.90;35.33;;;;;;;;;;5064992;28;20204;-68
2022/03/16 02:56:12;;;;;;;46.97;34.67;;;;;;;;;;5064669;28;20232;-68
2022/03/16 02:58:40;;;;;;;47.60;35.08;;;;;;;;;;5064829;28;20244;-68
2022/03/16 03:01:06;;;;;;;45.80;34.78;;;;;;;;;;5064626;28;20219;-68
2022/03/16 03:03:32;;;;;;;51.47;35.88;;;;;;;;;;5064478;28;20209;-68
2022/03/16 03:05:59;;;;;;;49.00;35.70;;;;;;;;;;5064145;28;20232;-68
2022/03/16 03:08:25;;;;;;;50.65;35.83;;;;;;;;;;5064719;28;20204;-68
2022/03/16 03:10:51;;;;;;;50.95;36.35;;;;;;;;;;5064488;28;20196;-68
2022/03/16 03:13:18;;;;;;;47.72;35.47;;;;;;;;;;5064506;28;20197;-68
2022/03/16 03:15:45;;;;;;;47.35;34.53;;;;;;;;;;5064470;28;20389;-68
2022/03/16 03:18:11;;;;;;;49.83;35.90;;;;;;;;;;5064151;28;20238;-68
2022/03/16 03:20:38;;;;;;;50.92;37.60;;;;;;;;;;5064448;28;20209;-68
2022/03/16 03:23:04;;;;;;;52.85;35.97;;;;;;;;;;5064420;28;20278;-68
2022/03/16 03:25:31;;;;;;;49.03;34.33;;;;;;;;;;5064227;28;20205;-68
2022/03/16 03:27:57;;;;;;;48.20;35.38;;;;;;;;;;5064077;28;20271;-68
2022/03/16 03:30:23;;;;;;;53.58;37.88;;;;;;;;;;5064139;28;20559;-68
2022/03/16 03:32:51;;;;;;;53.70;37.83;;;;;;;;;;5063996;28;20193;-68
2022/03/16 03:35:17;;;;;;;50.53;35.65;;;;;;;;;;5064331;28;20197;-68
2022/03/16 03:37:43;;;;;;;51.90;37.10;;;;;;;;;;5063906;28;20208;-68
2022/03/16 03:40:10;;;;;;;53.47;38.85;;;;;;;;;;5064071;28;20197;-68
2022/03/16 03:42:36;;;;;;;48.60;35.55;;;;;;;;;;5063967;28;20197;-68
2022/03/16 03:45:03;;;;;;;48.90;35.35;;;;;;;;;;5063942;28;20239;-68
2022/03/16 03:47:29;;;;;;;50.60;36.22;;;;;;;;;;5063729;28;20231;-68
2022/03/16 03:49:57;;;;;;;49.97;35.97;;;;;;;;;;5063939;28;20441;-68
2022/03/16 03:52:23;;;;;;;48.63;35.00;;;;;;;;;;5063869;28;20205;-68
2022/03/16 03:54:49;;;;;;;48.05;36.17;;;;;;;;;;5063746;28;20197;-68
2022/03/16 03:57:15;;;;;;;50.85;37.28;;;;;;;;;;5063346;28;20236;-68
2022/03/16 03:59:42;;;;;;;54.85;37.72;;;;;;;;;;5063601;28;20460;-68
2022/03/16 04:02:08;;;;;;;53.90;37.45;;;;;;;;;;5063522;28;20197;-68
2022/03/16 04:04:34;;;;;;;49.88;37.65;;;;;;;;;;5063628;28;20443;-68
2022/03/16 04:07:02;;;;;;;54.58;37.08;;;;;;;;;;5063129;28;20240;-68
2022/03/16 04:09:28;;;;;;;54.90;38.78;;;;;;;;;;5063264;28;20547;-68
2022/03/16 04:11:54;;;;;;;53.97;38.75;;;;;;;;;;5063333;28;20224;-68
2022/03/16 04:14:20;;;;;;;57.67;38.83;;;;;;;;;;5063260;28;20201;-68
2022/03/16 04:16:47;;;;;;;55.15;38.67;;;;;;;;;;5061930;28;20209;-68
2022/03/16 04:19:13;;;;;;;54.22;38.22;;;;;;;;;;5063363;28;20197;-68
2022/03/16 04:21:39;;;;;;;54.10;37.63;;;;;;;;;;5063511;28;20228;-68
2022/03/16 04:24:07;;;;;;;54.22;37.85;;;;;;;;;;5062993;28;20263;-68
2022/03/16 04:26:34;;;;;;;55.97;38.72;;;;;;;;;;5062786;28;20396;-68
2022/03/16 04:29:00;;;;;;;57.33;39.22;;;;;;;;;;5063009;28;20200;-68
2022/03/16 04:31:26;;;;;;;51.42;37.25;;;;;;;;;;5063299;28;20201;-68
2022/03/16 04:33:53;;;;;;;53.78;37.60;;;;;;;;;;5063133;28;20193;-68
2022/03/16 04:36:19;;;;;;;56.63;39.20;;;;;;;;;;5062735;28;20197;-68
2022/03/16 04:38:45;;;;;;;55.55;39.28;;;;;;;;;;5062899;28;20250;-68
2022/03/16 04:41:13;;;;;;;53.97;38.00;;;;;;;;;;5062857;28;20193;-68
2022/03/16 04:43:39;;;;;;;57.60;39.72;;;;;;;;;;5062496;28;20586;-68
2022/03/16 04:46:06;;;;;;;56.58;37.80;;;;;;;;;;5062778;28;20200;-68
2022/03/16 04:48:32;;;;;;;52.80;37.55;;;;;;;;;;5062731;28;20201;-68
2022/03/16 04:50:58;;;;;;;54.35;38.15;;;;;;;;;;5062792;28;20197;-68
2022/03/16 04:53:25;;;;;;;55.10;37.30;;;;;;;;;;5062593;28;20197;-68
2022/03/16 04:55:51;;;;;;;51.13;36.63;;;;;;;;;;5062539;28;20243;-68
2022/03/16 04:58:18;;;;;;;55.58;38.67;;;;;;;;;;5062280;28;20259;-68
2022/03/16 05:00:45;;;;;;;52.88;37.10;;;;;;;;;;5062652;28;20235;-68
2022/03/16 05:03:11;;;;;;;52.47;37.15;;;;;;;;;;5062458;28;20216;-68
2022/03/16 05:05:37;;;;;;;50.17;36.47;;;;;;;;;;5062407;28;20217;-68
2022/03/16 05:08:03;;;;;;;53.53;37.72;;;;;;;;;;5062251;28;20197;-68
2022/03/16 05:10:30;;;;;;;51.05;36.50;;;;;;;;;;5062191;28;20189;-68
2022/03/16 05:12:56;;;;;;;51.05;37.30;;;;;;;;;;5062460;28;20563;-68
2022/03/16 05:15:23;;;;;;;50.92;36.47;;;;;;;;;;5062513;28;20219;-68
2022/03/16 05:17:50;;;;;;;46.50;34.33;;;;;;;;;;5062423;28;20211;-67
2022/03/16 05:20:16;;;;;;;52.78;37.05;;;;;;;;;;5062276;28;20197;-67
2022/03/16 05:22:43;;;;;;;47.30;33.97;;;;;;;;;;5062346;28;20515;-67
2022/03/16 05:25:10;;;;;;;47.15;34.47;;;;;;;;;;5061962;28;20221;-67
2022/03/16 05:27:36;;;;;;;47.17;34.42;;;;;;;;;;5061828;28;20205;-67
2022/03/16 05:30:03;;;;;;;47.53;33.67;;;;;;;;;;5062159;28;20201;-67
2022/03/16 05:32:32;;;;;;;50.95;34.90;;;;;;;;;;5062127;28;20201;-67
2022/03/16 05:34:59;;;;;;;51.42;35.80;;;;;;;;;;5062026;28;20216;-67
2022/03/16 05:37:25;;;;;;;54.45;37.75;;;;;;;;;;5061952;28;20337;-67
2022/03/16 05:39:52;;;;;;;53.97;36.90;;;;;;;;;;5061987;28;20196;-68
2022/03/16 05:42:19;;;;;;;55.63;38.17;;;;;;;;;;5062747;28;20197;-67
2022/03/16 05:44:45;;;;;;;53.47;37.78;;;;;;;;;;5062034;28;20213;-67
2022/03/16 05:47:11;;;;;;;53.97;36.38;;;;;;;;;;5061862;28;20259;-67
2022/03/16 05:49:39;;;;;;;55.40;36.67;;;;;;;;;;5061879;28;20496;-67
2022/03/16 05:52:06;;;;;;;57.40;38.22;;;;;;;;;;5061920;28;20413;-67
2022/03/16 05:54:32;;;;;;;58.53;39.03;;;;;;;;;;5061797;28;20290;-68
2022/03/16 05:56:58;;;;;;;54.13;37.50;;;;;;;;;;5061964;28;20456;-67
2022/03/16 05:59:25;;;;;;;56.28;37.55;;;;;;;;;;5062162;28;20197;-67
2022/03/16 06:01:51;;;;;;;56.20;37.40;;;;;;;;;;5061958;28;20508;-67
2022/03/16 06:04:17;;;;;;;65.53;40.05;;;;;;;;;;5061806;28;20544;-67
2022/03/16 06:06:45;;;;;;;61.15;38.97;;;;;;;;;;5061504;28;20360;-67
2022/03/16 06:09:11;;;;;;;68.95;41.17;;;;;;;;;;5062160;28;20420;-67
2022/03/16 06:11:39;;;;;;;63.38;39.45;;;;;;;;;;5061842;28;20243;-67
2022/03/16 06:14:05;;;;;;;57.85;37.67;;;;;;;;;;5061740;28;20193;-67
2022/03/16 06:16:31;;;;;;;65.65;38.72;;;;;;;;;;5061432;28;20235;-67
2022/03/16 06:18:58;;;;;;;59.97;38.17;;;;;;;;;;5061770;28;20197;-67
2022/03/16 06:21:24;;;;;;;62.05;38.03;;;;;;;;;;5061448;28;20197;-67
2022/03/16 06:23:52;;;;;;;60.80;35.72;;;;;;;;;;5061543;28;20267;-67
2022/03/16 06:26:18;;;;;;;60.92;39.13;;;;;;;;;;5061551;28;20511;-67
2022/03/16 06:28:44;;;;;;;60.75;36.75;;;;;;;;;;5061993;28;20507;-67
2022/03/16 06:31:10;;;;;;;61.17;36.30;;;;;;;;;;5061831;28;20505;-68
2022/03/16 06:33:36;;;;;;;58.10;36.25;;;;;;;;;;5061625;28;20201;-67
2022/03/16 06:39:03;;;;;;;55.05;34.28;;;;;;;;;;5049980;28;20201;-67
2022/03/16 06:41:30;;;;;;;54.83;34.33;;;;;;;;;;5064855;28;20235;-67
2022/03/16 06:43:56;;;;;;;53.10;33.45;;;;;;;;;;5065016;28;20242;-67
2022/03/16 06:46:22;;;;;;;57.65;34.70;;;;;;;;;;5064788;28;20201;-67
2022/03/16 06:48:48;;;;;;;58.15;34.80;;;;;;;;;;5064848;28;20455;-67
2022/03/16 06:51:15;;;;;;;49.75;33.15;;;;;;;;;;5065205;28;20239;-67
2022/03/16 06:53:41;;;;;;;56.42;34.20;;;;;;;;;;5064976;28;20527;-67
2022/03/16 06:56:09;;;;;;;49.85;33.22;;;;;;;;;;5064833;28;20197;-67
2022/03/16 06:58:35;;;;;;;55.88;32.70;;;;;;;;;;5064997;28;20201;-67
2022/03/16 07:01:02;;;;;;;53.90;32.85;;;;;;;;;;5064717;28;20251;-67
2022/03/16 07:03:28;;;;;;;56.75;33.95;;;;;;;;;;5065070;28;20500;-67
2022/03/16 07:05:55;;;;;;;51.30;32.45;;;;;;;;;;5064730;28;20255;-67
2022/03/16 07:08:21;;;;;;;51.88;32.58;;;;;;;;;;5064558;28;20197;-67
2022/03/16 07:10:47;;;;;;;50.47;32.97;;;;;;;;;;5064712;28;20555;-67
2022/03/16 07:13:15;;;;;;;51.70;33.30;;;;;;;;;;5064660;28;20251;-67
2022/03/16 07:15:42;;;;;;;52.40;33.15;;;;;;;;;;5064343;28;20235;-67
2022/03/16 07:18:09;;;;;;;46.03;30.85;;;;;;;;;;5064499;28;20197;-67
2022/03/16 07:20:35;;;;;;;46.78;30.10;;;;;;;;;;5064387;28;20260;-67
2022/03/16 07:23:05;;;;;;;49.08;31.30;;;;;;;;;;5064761;28;20205;-67
2022/03/16 07:25:32;;;;;;;45.80;31.40;;;;;;;;;;5064340;28;20221;-67
2022/03/16 07:27:58;;;;;;;49.25;32.60;;;;;;;;;;5064603;28;20203;-67
2022/03/16 07:30:26;;;;;;;46.60;31.02;;;;;;;;;;5064217;28;20201;-67
2022/03/16 07:32:52;;;;;;;45.08;29.05;;;;;;;;;;5064417;28;20205;-67
2022/03/16 07:35:24;;;;;;;44.55;31.42;;;;;;;;;;5064096;28;20239;-67
2022/03/16 07:37:50;;;;;;;46.65;31.20;;;;;;;;;;5063969;28;20220;-67
2022/03/16 07:40:16;;;;;;;43.60;30.52;;;;;;;;;;5064114;28;20288;-67
2022/03/16 07:42:44;;;;;;;43.67;29.83;;;;;;;;;;5063932;28;20235;-67
2022/03/16 07:45:11;;;;;;;46.28;31.38;;;;;;;;;;5064001;28;20221;-67
2022/03/16 07:47:38;;;;;;;45.10;31.08;;;;;;;;;;5064018;28;20550;-67
2022/03/16 07:50:05;;;;;;;46.38;30.58;;;;;;;;;;5063997;28;20378;-67
2022/03/16 07:52:32;;;;;;;48.75;32.03;;;;;;;;;;5063421;28;20197;-67
2022/03/16 07:54:58;;;;;;;42.33;28.10;;;;;;;;;;5063449;28;20231;-67
2022/03/16 07:57:25;;;;;;;44.45;29.70;;;;;;;;;;5062914;28;20200;-67
2022/03/16 07:59:51;;;;;;;46.13;30.83;;;;;;;;;;5063210;28;20236;-67
2022/03/16 08:02:18;;;;;;;42.58;28.98;;;;;;;;;;5063349;28;20205;-67
2022/03/16 08:04:45;;;;;;;42.00;28.77;;;;;;;;;;5062964;28;20217;-67
2022/03/16 08:07:12;;;;;;;44.00;31.17;;;;;;;;;;5063061;28;20224;-67
2022/03/16 08:09:38;;;;;;;41.00;28.90;;;;;;;;;;5062950;28;20201;-67
2022/03/16 08:12:05;;;;;;;50.08;30.08;;;;;;;;;;5062859;28;20201;-67
2022/03/16 08:14:31;;;;;;;45.33;29.35;;;;;;;;;;5063123;28;20200;-67
2022/03/16 08:16:57;;;;;;;42.22;28.40;;;;;;;;;;5062758;28;20380;-67
2022/03/16 08:19:24;;;;;;;45.90;30.52;;;;;;;;;;5063096;28;20201;-67
2022/03/16 08:21:51;;;;;;;42.72;29.92;;;;;;;;;;5063319;28;20197;-67
2022/03/16 08:24:18;;;;;;;44.13;29.35;;;;;;;;;;5062711;28;20220;-67
2022/03/16 08:26:44;;;;;;;41.25;29.65;;;;;;;;;;5062576;28;20240;-67
2022/03/16 08:29:10;;;;;;;43.92;30.10;;;;;;;;;;5062977;28;20255;-67
2022/03/16 08:31:37;;;;;;;41.47;29.65;;;;;;;;;;5062832;28;20412;-67
2022/03/16 08:34:03;;;;;;;45.90;30.40;;;;;;;;;;5062679;28;20484;-67
2022/03/16 08:36:29;;;;;;;44.88;29.65;;;;;;;;;;5062470;28;20197;-67
2022/03/16 08:38:57;;;;;;;42.03;29.75;;;;;;;;;;5062374;28;20294;-59
2022/03/16 08:41:23;;;;;;;45.25;30.38;;;;;;;;;;5062273;28;20205;-61
2022/03/16 08:43:49;;;;;;;42.58;29.92;;;;;;;;;;5062566;28;20197;-60
2022/03/16 08:46:15;;;;;;;38.88;28.10;;;;;;;;;;5062085;28;20459;-59
2022/03/16 08:48:42;;;;;;;42.47;29.88;;;;;;;;;;5062516;28;20559;-61
2022/03/16 08:51:09;;;;;;;46.88;29.33;;;;;;;;;;5062370;28;20521;-61
2022/03/16 08:53:37;;;;;;;41.80;28.52;;;;;;;;;;5062201;28;20493;-61
2022/03/16 08:56:04;;;;;;;41.83;28.13;;;;;;;;;;5062410;28;20391;-61
2022/03/16 08:58:30;;;;;;;43.10;28.58;;;;;;;;;;5062454;28;20246;-60
2022/03/16 09:00:57;;;;;;;37.85;26.10;;;;;;;;;;5062369;28;20201;-59
2022/03/16 09:03:23;;;;;;;39.95;28.15;;;;;;;;;;5061495;28;20201;-60
2022/03/16 09:05:50;;;;;;;39.15;28.10;;;;;;;;;;5061698;28;20224;-61
2022/03/16 09:08:18;;;;;;;40.95;28.23;;;;;;;;;;5055795;28;20197;-61
2022/03/16 09:10:44;;;;;;;41.28;28.20;;;;;;;;;;5061041;28;20240;-61
2022/03/16 09:13:11;;;;;;;38.25;27.10;;;;;;;;;;5067906;28;20197;-61
2022/03/16 09:15:38;;;;;;;40.17;28.48;;;;;;;;;;5059673;28;20205;-61
2022/03/16 09:18:04;;;;;;;38.15;26.90;;;;;;;;;;5056171;28;20494;-61
2022/03/16 09:20:30;;;;;;;40.63;27.98;;;;;;;;;;5055801;28;20258;-61
2022/03/16 09:22:59;;;;;;;36.00;25.92;;;;;;;;;;5055849;28;20249;-61
2022/03/16 09:25:25;;;;;;;37.42;26.60;;;;;;;;;;5055826;28;20229;-61
2022/03/16 09:27:52;;;;;;;40.17;27.38;;;;;;;;;;5055817;28;20298;-61
2022/03/16 09:30:21;;;;;;;36.53;25.45;;;;;;;;;;5056359;28;20204;-61
2022/03/16 09:32:47;;;;;;;37.63;26.95;;;;;;;;;;5056625;28;20216;-60
2022/03/16 09:35:13;;;;;;;35.80;25.67;;;;;;;;;;5056392;28;20205;-61
2022/03/16 09:37:40;;;;;;;33.38;24.63;;;;;;;;;;5056304;28;20275;-60
2022/03/16 09:40:07;;;;;;;36.50;25.55;;;;;;;;;;5055709;28;20528;-61
2022/03/16 09:42:34;;;;;;;35.10;24.55;;;;;;;;;;5056555;28;20213;-60
2022/03/16 09:45:01;;;;;;;33.58;24.33;;;;;;;;;;5056706;28;20404;-62
2022/03/16 09:47:30;;;;;;;34.40;24.33;;;;;;;;;;5055880;28;20201;-62
2022/03/16 09:49:56;;;;;;;32.40;23.60;;;;;;;;;;5056488;28;20516;-62
2022/03/16 09:52:23;;;;;;;32.97;22.30;;;;;;;;;;5056643;28;20333;-61
2022/03/16 09:54:50;;;;;;;33.63;23.80;;;;;;;;;;5056508;28;20208;-61
2022/03/16 09:57:16;;;;;;;32.97;23.85;;;;;;;;;;5056327;28;20209;-61
2022/03/16 09:59:43;;;;;;;31.48;23.45;;;;;;;;;;5056319;28;20205;-61
2022/03/16 10:02:15;;;;;;;30.95;23.52;;;;;;;;;;5056362;28;20216;-61
2022/03/16 10:04:43;;;;;;;31.92;23.33;;;;;;;;;;5056331;28;20255;-60
2022/03/16 10:07:09;;;;;;;32.50;22.85;;;;;;;;;;5056420;28;20216;-60
2022/03/16 10:15:10;;;;;;;32.47;23.20;;;;;;;;;;5057758;28;20243;-61
2022/03/16 10:17:45;;;;;;;32.90;24.00;;;;;;;;;;5060093;28;20209;-61
2022/03/16 10:20:20;;;;;;;30.77;23.15;;;;;;;;;;5059871;28;20285;-61
2022/03/16 10:22:54;;;;;;;28.55;21.90;;;;;;;;;;5060303;28;20517;-61
2022/03/16 10:25:20;;;;;;;30.88;22.60;;;;;;;;;;5060391;28;20316;-61
2022/03/16 10:27:46;;;;;;;31.98;23.70;;;;;;;;;;5059971;28;20421;-61
2022/03/16 10:30:14;;;;;;;31.50;22.38;;;;;;;;;;5059814;28;20377;-59
2022/03/16 10:32:40;;;;;;;29.25;22.50;;;;;;;;;;5060268;28;20280;-60
2022/03/16 10:35:07;;;;;;;28.63;22.27;;;;;;;;;;5060127;28;20525;-60
2022/03/16 10:37:36;;;;;;;29.33;23.25;;;;;;;;;;5058709;28;20209;-61
2022/03/16 10:40:17;;;;;;;29.35;22.70;;;;;;;;;;5059631;28;20232;-61
2022/03/16 10:48:13;;;;;;;28.75;22.13;;;;;;;;;;5059114;28;20412;-60
2022/03/16 10:50:40;;;;;;;29.25;22.67;;;;;;;;;;5059380;28;20213;-59
2022/03/16 10:53:09;;;;;;;27.17;22.08;;;;;;;;;;5059674;28;20477;-61
2022/03/16 10:55:35;;;;;;;33.42;22.83;;;;;;;;;;5059774;28;20512;-60
2022/03/16 10:58:03;;;;;;;25.92;21.30;;;;;;;;;;5059235;28;20209;-59
2022/03/16 11:00:29;;;;;;;26.98;20.75;;;;;;;;;;5059332;28;20216;-61
2022/03/16 11:02:56;;;;;;;27.48;20.83;;;;;;;;;;5059209;28;20208;-60
2022/03/16 11:05:23;;;;;;;24.90;20.35;;;;;;;;;;5059574;28;20224;-60
2022/03/16 11:07:50;;;;;;;23.77;20.70;;;;;;;;;;5059343;28;20235;-59
2022/03/16 11:10:18;;;;;;;23.08;19.42;;;;;;;;;;5058812;28;20216;-60
2022/03/16 11:15:28;;;;;;;24.92;18.92;;;;;;;;;;5059394;28;20236;-60
2022/03/16 11:17:55;;;;;;;25.73;20.73;;;;;;;;;;5058612;28;20220;-59
2022/03/16 11:20:21;;;;;;;24.98;20.00;;;;;;;;;;5058705;28;20208;-59
2022/03/16 11:25:36;;;;;;;42.25;20.35;;;;;;;;;;5061201;28;20231;-61
2022/03/16 11:28:04;;;;;;;23.70;17.98;;;;;;;;;;5064402;28;20243;-60
2022/03/16 11:30:33;;;;;;;21.67;18.77;;;;;;;;;;5064446;28;20250;-61
2022/03/16 11:33:01;;;;;;;23.45;18.73;;;;;;;;;;5064221;28;20229;-60
2022/03/16 11:35:32;;;;;;;24.33;19.08;;;;;;;;;;5063538;28;20477;-61
2022/03/16 11:38:00;;;;;;;22.58;17.67;;;;;;;;;;5063583;28;20197;-61
2022/03/16 11:40:26;;;;;;;21.23;18.50;;;;;;;;;;5064335;28;20242;-61
2022/03/16 11:43:12;;;;;;;25.00;20.10;;;;;;;;;;5064004;28;20197;-60
2022/03/16 11:45:41;;;;;;;23.10;19.13;;;;;;;;;;5064009;28;20221;-60
2022/03/16 11:48:26;;;;;;;25.13;19.20;;;;;;;;;;5063763;28;20204;-61
2022/03/16 11:51:09;;;;;;;22.23;17.98;;;;;;;;;;5064223;28;20200;-61
2022/03/16 11:54:05;;;;;;;22.23;18.83;;;;;;;;;;5050532;28;20437;-61
2022/03/16 11:56:44;;;;;;;21.30;17.73;;;;;;;;;;5063670;28;20482;-61
2022/03/16 11:59:29;;;;;;;22.30;18.63;;;;;;;;;;5063698;28;20251;-60
2022/03/16 12:02:05;;;;;;;22.20;18.45;;;;;;;;;;5063958;28;20507;-61
2022/03/16 12:04:32;;;;;;;23.88;19.23;;;;;;;;;;5063679;28;20197;-61
2022/03/16 12:07:02;;;;;;;20.92;18.38;;;;;;;;;;5062886;28;20221;-61
2022/03/16 12:09:32;;;;;;;22.65;17.98;;;;;;;;;;5061100;28;20523;-61
2022/03/16 12:14:59;;;;;;;20.60;18.13;;;;;;;;;;5063574;28;20508;-61
2022/03/16 12:17:27;;;;;;;21.20;17.75;;;;;;;;;;5063044;28;20197;-61
2022/03/16 12:20:10;;;;;;;26.35;18.45;;;;;;;;;;5063082;28;20201;-60
2022/03/16 12:22:42;;;;;;;22.55;17.05;;;;;;;;;;5063397;28;20550;-61
2022/03/16 12:25:28;;;;;;;19.50;17.33;;;;;;;;;;5063189;28;20246;-62
2022/03/16 12:30:39;;;;;;;23.70;17.38;;;;;;;;;;5063084;28;20393;-61
2022/03/16 12:33:06;;;;;;;19.00;16.55;;;;;;;;;;5063052;28;20205;-61
2022/03/16 12:35:34;;;;;;;20.23;17.63;;;;;;;;;;5063260;28;20264;-61
2022/03/16 12:38:00;;;;;;;21.55;17.40;;;;;;;;;;5061970;28;20247;-61
2022/03/16 12:40:29;;;;;;;21.60;17.50;;;;;;;;;;5062872;28;20201;-61
2022/03/16 12:42:56;;;;;;;20.67;16.95;;;;;;;;;;5063095;28;20358;-59
2022/03/16 12:45:25;;;;;;;22.00;16.92;;;;;;;;;;5062857;28;20228;-60
2022/03/16 12:47:56;;;;;;;21.85;17.25;;;;;;;;;;5062415;28;20197;-60
2022/03/16 12:50:26;;;;;;;20.20;17.10;;;;;;;;;;5062868;28;20544;-60
2022/03/16 12:52:52;;;;;;;23.77;17.00;;;;;;;;;;5062791;28;20231;-59
2022/03/16 12:55:19;;;;;;;19.15;15.85;;;;;;;;;;5062462;28;20197;-62
2022/03/16 12:57:50;;;;;;;22.67;16.08;;;;;;;;;;5062551;28;20251;-59
2022/03/16 13:00:17;;;;;;;18.58;16.25;;;;;;;;;;5062667;28;20197;-60
2022/03/16 13:02:44;;;;;;;22.48;17.02;;;;;;;;;;5062521;28;20211;-60
2022/03/16 13:05:11;;;;;;;20.02;16.05;;;;;;;;;;5062232;28;20229;-62
2022/03/16 13:07:39;;;;;;;18.90;16.60;;;;;;;;;;5062079;28;20260;-59
2022/03/16 13:10:06;;;;;;;21.23;15.95;;;;;;;;;;5062263;28;20197;-58
2022/03/16 13:12:32;;;;;;;19.70;16.33;;;;;;;;;;5062595;28;20235;-58
2022/03/16 13:14:59;;;;;;;18.17;16.00;;;;;;;;;;5062310;28;20201;-59
2022/03/16 13:17:34;;;;;;;21.80;17.05;;;;;;;;;;5062043;28;20193;-59
2022/03/16 13:20:01;;;;;;;20.00;16.10;;;;;;;;;;5062221;28;20205;-61
2022/03/16 13:22:30;;;;;;;19.60;16.80;;;;;;;;;;5062210;28;20407;-60
2022/03/16 13:24:58;;;;;;;21.08;15.88;;;;;;;;;;5062077;28;20205;-60
2022/03/16 13:27:26;;;;;;;20.23;16.73;;;;;;;;;;5061987;28;20255;-61
2022/03/16 13:29:53;;;;;;;21.38;17.05;;;;;;;;;;5062187;28;20460;-60
2022/03/16 13:32:20;;;;;;;22.13;18.17;;;;;;;;;;5062258;28;20197;-59
2022/03/16 13:34:49;;;;;;;20.63;17.13;;;;;;;;;;5061860;28;20219;-61
2022/03/16 13:37:22;;;;;;;23.50;18.15;;;;;;;;;;5061984;28;20194;-60
2022/03/16 13:39:59;;;;;;;21.50;17.88;;;;;;;;;;5062341;28;20201;-60
2022/03/16 13:42:29;;;;;;;19.67;17.45;;;;;;;;;;5062093;28;20234;-61
2022/03/16 13:45:10;;;;;;;19.58;17.48;;;;;;;;;;5062350;28;20185;-61
2022/03/16 13:47:36;;;;;;;22.20;17.50;;;;;;;;;;5061695;28;20252;-61
2022/03/16 13:50:03;;;;;;;22.45;17.55;;;;;;;;;;5065138;28;20399;-60
2022/03/16 13:52:36;;;;;;;22.52;17.77;;;;;;;;;;5066215;28;20211;-61
2022/03/16 13:55:12;;;;;;;21.73;18.30;;;;;;;;;;5066165;28;20267;-61
2022/03/16 13:57:42;;;;;;;21.25;18.60;;;;;;;;;;5060816;28;20276;-61
2022/03/16 14:00:09;;;;;;;23.05;17.73;;;;;;;;;;5065262;28;20467;-61
2022/03/16 14:02:36;;;;;;;23.98;17.55;;;;;;;;;;5068682;28;20220;-61
2022/03/16 14:05:03;;;;;;;21.33;18.45;;;;;;;;;;5060198;28;20478;-61
2022/03/16 14:07:30;;;;;;;19.10;17.00;;;;;;;;;;5059976;28;20231;-61
2022/03/16 14:09:57;;;;;;;22.35;18.23;;;;;;;;;;5060288;28;20213;-59
2022/03/16 14:12:26;;;;;;;24.65;18.88;;;;;;;;;;5059856;28;20571;-59
2022/03/16 14:15:01;;;;;;;22.20;17.77;;;;;;;;;;5060052;28;20228;-60
2022/03/16 14:17:40;;;;;;;24.05;19.90;;;;;;;;;;5059761;28;20209;-60
2022/03/16 14:20:08;;;;;;;26.40;19.95;;;;;;;;;;5059992;28;20209;-61
2022/03/16 14:22:35;;;;;;;22.77;17.25;;;;;;;;;;5060115;28;20209;-60
2022/03/16 14:25:11;;;;;;;22.60;18.52;;;;;;;;;;5059688;28;20524;-60
2022/03/16 14:27:39;;;;;;;23.92;18.42;;;;;;;;;;5059594;28;20443;-60
2022/03/16 14:30:05;;;;;;;21.92;16.88;;;;;;;;;;5059902;28;20270;-61
2022/03/16 14:32:32;;;;;;;19.02;17.02;;;;;;;;;;5060053;28;20266;-60
2022/03/16 14:34:58;;;;;;;19.50;16.08;;;;;;;;;;5059956;28;20232;-61
2022/03/16 14:37:24;;;;;;;20.35;17.00;;;;;;;;;;5059053;28;20205;-59
2022/03/16 14:39:50;;;;;;;22.05;16.33;;;;;;;;;;5059717;28;20294;-60
2022/03/16 14:42:18;;;;;;;20.77;16.80;;;;;;;;;;5059960;28;20574;-60